Time;durP1;ratioP1;P1;durP2;ratioP2;P2;SDS_P1;SDS_P2;PMS_P1;PMS_P2;Temp;Humidity;BMP_temperature;BMP_pressure;BME280_temperature;BME280_humidity;BME280_pressure;Samples;Min_cycle;Max_cycle;Signal;HPM_P1;HPM_P2
2021/09/01 00:02:07;;;;;;;13.73;5.85;;;16.90;99.90;;;;;;5047683;28;20045;-85
2021/09/01 00:04:33;;;;;;;13.43;5.88;;;16.90;99.90;;;;;;5048773;28;20037;-85
2021/09/01 00:06:59;;;;;;;17.13;6.50;;;16.90;99.90;;;;;;5048629;28;20033;-85
2021/09/01 00:09:25;;;;;;;17.27;6.28;;;16.90;99.90;;;;;;5047599;28;20032;-85
2021/09/01 00:11:51;;;;;;;12.98;5.85;;;16.90;99.90;;;;;;5047879;28;20027;-85
2021/09/01 00:14:17;;;;;;;12.55;5.68;;;16.90;99.90;;;;;;5041290;28;20478;-85
2021/09/01 00:16:44;;;;;;;13.82;5.85;;;17.00;99.90;;;;;;5043395;28;20155;-85
2021/09/01 00:19:10;;;;;;;20.25;6.95;;;17.00;99.90;;;;;;5044608;28;20037;-85
2021/09/01 00:21:37;;;;;;;17.83;6.30;;;16.90;99.90;;;;;;5044251;28;20029;-85
2021/09/01 00:24:03;;;;;;;17.02;6.15;;;16.90;99.90;;;;;;5046101;28;20049;-85
2021/09/01 00:26:29;;;;;;;12.35;6.05;;;16.90;99.90;;;;;;5046697;28;20022;-85
2021/09/01 00:28:57;;;;;;;14.25;5.55;;;16.90;99.90;;;;;;5043265;28;20025;-85
2021/09/01 00:31:23;;;;;;;14.32;5.25;;;16.90;99.90;;;;;;5045165;28;20389;-85
2021/09/01 00:33:49;;;;;;;13.00;5.75;;;16.90;99.90;;;;;;5042944;28;20033;-85
2021/09/01 00:36:16;;;;;;;17.48;6.65;;;16.90;99.90;;;;;;5047064;28;20096;-85
2021/09/01 00:38:41;;;;;;;13.38;5.72;;;16.90;99.90;;;;;;5047094;28;20052;-85
2021/09/01 00:41:07;;;;;;;18.38;6.15;;;16.90;99.90;;;;;;5047478;28;20025;-85
2021/09/01 00:43:33;;;;;;;14.40;5.50;;;16.90;99.90;;;;;;5041481;28;20025;-85
2021/09/01 00:45:59;;;;;;;15.63;6.28;;;16.90;99.90;;;;;;5033643;28;20033;-84
2021/09/01 00:48:25;;;;;;;13.10;5.57;;;16.90;99.90;;;;;;5030894;28;20209;-85
2021/09/01 00:50:56;;;;;;;16.73;6.88;;;16.80;99.90;;;;;;5030708;28;20447;-85
2021/09/01 00:53:37;;;;;;;11.40;5.57;;;16.90;99.90;;;;;;5030618;28;20036;-85
2021/09/01 00:56:04;;;;;;;18.63;6.85;;;16.80;99.90;;;;;;5030721;28;20026;-85
2021/09/01 00:58:37;;;;;;;11.88;4.88;;;16.80;99.90;;;;;;5028950;28;20445;-85
2021/09/01 01:01:16;;;;;;;15.43;6.32;;;16.80;99.90;;;;;;5029795;28;20022;-85
2021/09/01 01:03:46;;;;;;;11.57;4.35;;;16.80;99.90;;;;;;5030639;28;20622;-84
2021/09/01 01:06:12;;;;;;;17.98;6.90;;;16.80;99.90;;;;;;5028990;28;20137;-84
2021/09/01 01:08:38;;;;;;;12.35;5.13;;;16.80;99.90;;;;;;5031115;28;20025;-87
2021/09/01 01:11:11;;;;;;;14.52;6.20;;;16.70;99.90;;;;;;5029869;28;20036;-87
2021/09/01 01:13:37;;;;;;;16.55;5.40;;;16.70;99.90;;;;;;5028925;28;20029;-85
2021/09/01 01:16:03;;;;;;;15.48;5.00;;;16.70;99.90;;;;;;5028975;28;20036;-85
2021/09/01 01:18:29;;;;;;;13.88;5.28;;;16.70;99.90;;;;;;5028784;28;20432;-85
2021/09/01 01:20:55;;;;;;;17.08;5.13;;;16.70;99.90;;;;;;5028574;28;20383;-85
2021/09/01 01:23:24;;;;;;;12.88;4.63;;;16.70;99.90;;;;;;5030360;28;20048;-84
2021/09/01 01:25:51;;;;;;;;;;;16.60;99.90;;;;;;5030778;28;20107;-85
2021/09/01 01:28:16;;;;;;;15.07;4.18;;;16.60;99.90;;;;;;5030122;28;19905;-84
2021/09/01 01:30:42;;;;;;;11.95;4.15;;;16.60;99.90;;;;;;5028375;28;20639;-85
2021/09/01 01:33:08;;;;;;;12.15;4.32;;;16.60;99.90;;;;;;5030129;28;20481;-85
2021/09/01 01:35:38;;;;;;;10.95;4.57;;;16.60;99.90;;;;;;5030504;28;20386;-84
2021/09/01 01:38:06;;;;;;;13.95;4.65;;;16.60;99.90;;;;;;5030189;28;20036;-84
2021/09/01 01:40:33;;;;;;;12.13;3.90;;;16.60;99.90;;;;;;5029792;28;20026;-84
2021/09/01 01:42:59;;;;;;;14.73;4.72;;;16.60;99.90;;;;;;5029006;28;20089;-82
2021/09/01 01:45:34;;;;;;;13.10;4.95;;;16.60;99.90;;;;;;5030232;28;20073;-82
2021/09/01 01:48:01;;;;;;;14.18;4.97;;;16.60;99.90;;;;;;5030737;28;20088;-82
2021/09/01 01:50:27;;;;;;;11.40;4.90;;;16.60;99.90;;;;;;5030927;28;20025;-82
2021/09/01 01:52:52;;;;;;;12.30;4.65;;;16.60;99.90;;;;;;5029213;28;20551;-82
2021/09/01 01:55:18;;;;;;;14.75;5.15;;;16.60;99.90;;;;;;5031178;28;20397;-82
2021/09/01 01:57:44;;;;;;;12.00;4.38;;;16.60;99.90;;;;;;5031460;28;20067;-82
2021/09/01 02:00:11;;;;;;;13.30;4.78;;;16.60;99.90;;;;;;5030561;28;20370;-82
2021/09/01 02:02:37;;;;;;;12.27;4.30;;;16.60;99.90;;;;;;5030511;28;20033;-82
2021/09/01 02:05:03;;;;;;;10.57;4.20;;;16.60;99.90;;;;;;5030928;28;20386;-82
2021/09/01 02:07:29;;;;;;;8.43;4.30;;;16.60;99.90;;;;;;5029805;28;20435;-82
2021/09/01 02:09:55;;;;;;;10.38;4.10;;;16.60;99.90;;;;;;5030942;28;20033;-82
2021/09/01 02:12:21;;;;;;;12.55;4.25;;;16.60;99.90;;;;;;5033239;28;20390;-82
2021/09/01 02:14:47;;;;;;;10.90;4.07;;;16.60;99.90;;;;;;5035037;28;20025;-81
2021/09/01 02:17:13;;;;;;;13.50;4.15;;;16.60;99.90;;;;;;5032370;28;20018;-82
2021/09/01 02:19:39;;;;;;;10.40;3.90;;;16.60;99.90;;;;;;5032015;28;20324;-82
2021/09/01 02:22:05;;;;;;;13.40;4.18;;;16.60;99.90;;;;;;5031882;28;20116;-82
2021/09/01 02:24:31;;;;;;;12.20;4.20;;;16.60;99.90;;;;;;5033470;28;20053;-83
2021/09/01 02:26:56;;;;;;;10.23;3.92;;;16.60;99.90;;;;;;5031971;28;20441;-82
2021/09/01 02:29:22;;;;;;;11.85;4.40;;;16.60;99.90;;;;;;5032670;28;20022;-82
2021/09/01 02:31:48;;;;;;;13.73;4.13;;;16.60;99.90;;;;;;5033361;28;20131;-82
2021/09/01 02:34:13;;;;;;;13.27;4.63;;;16.60;99.90;;;;;;5032959;28;20096;-83
2021/09/01 02:36:39;;;;;;;9.65;4.13;;;16.60;99.90;;;;;;5031729;28;20033;-82
2021/09/01 02:39:05;;;;;;;10.35;4.13;;;16.50;99.90;;;;;;5030641;28;20095;-82
2021/09/01 02:41:32;;;;;;;8.95;3.70;;;16.50;99.90;;;;;;5032962;28;20104;-83
2021/09/01 02:43:57;;;;;;;13.00;4.35;;;16.50;99.90;;;;;;5031232;28;20021;-83
2021/09/01 02:46:24;;;;;;;14.23;4.88;;;16.50;99.90;;;;;;5031450;28;20022;-82
2021/09/01 02:48:49;;;;;;;11.95;4.78;;;16.50;99.90;;;;;;5032696;28;20171;-83
2021/09/01 02:51:15;;;;;;;9.68;4.40;;;16.50;99.90;;;;;;5031283;28;20163;-83
2021/09/01 02:53:41;;;;;;;13.50;3.85;;;16.50;99.90;;;;;;5032956;28;20448;-82
2021/09/01 02:56:07;;;;;;;11.63;4.10;;;16.50;99.90;;;;;;5031406;28;20026;-83
2021/09/01 02:58:33;;;;;;;12.32;4.10;;;16.50;99.90;;;;;;5030340;28;20022;-83
2021/09/01 03:00:59;;;;;;;10.15;4.30;;;16.50;99.90;;;;;;5032008;28;20663;-83
2021/09/01 03:03:25;;;;;;;12.40;4.43;;;16.50;99.90;;;;;;5032837;28;20467;-82
2021/09/01 03:05:50;;;;;;;10.80;4.30;;;16.50;99.90;;;;;;5031303;28;20053;-83
2021/09/01 03:08:16;;;;;;;10.35;4.07;;;16.50;99.90;;;;;;5032876;28;20075;-82
2021/09/01 03:10:42;;;;;;;9.55;4.07;;;16.50;99.90;;;;;;5032538;28;20354;-82
2021/09/01 03:13:08;;;;;;;14.82;4.70;;;16.50;99.90;;;;;;5032598;28;20029;-82
2021/09/01 03:15:34;;;;;;;9.88;4.05;;;16.50;99.90;;;;;;5031241;28;20029;-83
2021/09/01 03:18:00;;;;;;;9.20;4.15;;;16.50;99.90;;;;;;5032550;28;20116;-83
2021/09/01 03:20:26;;;;;;;11.68;4.28;;;16.50;99.90;;;;;;5032081;28;20018;-85
2021/09/01 03:22:52;;;;;;;10.32;3.80;;;16.50;99.90;;;;;;5032606;28;20478;-88
2021/09/01 03:25:18;;;;;;;11.30;4.10;;;16.50;99.90;;;;;;5030725;28;20060;-83
2021/09/01 03:27:43;;;;;;;11.60;4.03;;;16.50;99.90;;;;;;5030070;28;20061;-82
2021/09/01 03:30:10;;;;;;;10.70;4.07;;;16.50;99.90;;;;;;5031382;28;20044;-82
2021/09/01 03:32:36;;;;;;;14.43;5.22;;;16.50;99.90;;;;;;5030516;28;20041;-82
2021/09/01 03:35:04;;;;;;;8.73;4.13;;;16.50;99.90;;;;;;5029948;28;20098;-83
2021/09/01 03:37:30;;;;;;;7.43;3.83;;;16.50;99.90;;;;;;5030297;28;20025;-83
2021/09/01 03:39:56;;;;;;;10.88;3.90;;;16.50;99.90;;;;;;5031260;28;20028;-83
2021/09/01 03:42:21;;;;;;;8.25;4.00;;;16.50;99.90;;;;;;5032234;28;20164;-83
2021/09/01 03:44:47;;;;;;;10.93;3.80;;;16.50;99.90;;;;;;5030428;28;20554;-83
2021/09/01 03:47:12;;;;;;;7.00;3.17;;;16.50;99.90;;;;;;5031972;28;20105;-83
2021/09/01 03:49:38;;;;;;;8.73;3.70;;;16.50;99.90;;;;;;5031034;28;20030;-86
2021/09/01 03:52:04;;;;;;;10.48;3.65;;;16.50;99.90;;;;;;5031387;28;20021;-83
2021/09/01 03:54:29;;;;;;;11.30;4.50;;;16.50;99.90;;;;;;5029982;28;20510;-83
2021/09/01 03:56:55;;;;;;;8.75;3.33;;;16.50;99.90;;;;;;5029891;28;20036;-83
2021/09/01 03:59:21;;;;;;;9.65;3.63;;;16.50;99.90;;;;;;5030098;28;20026;-83
2021/09/01 04:01:47;;;;;;;10.27;3.88;;;16.50;99.90;;;;;;5031208;28;20025;-83
2021/09/01 04:04:12;;;;;;;9.23;3.70;;;16.50;99.80;;;;;;5029702;28;20026;-83
2021/09/01 04:06:38;;;;;;;8.95;3.72;;;16.50;99.90;;;;;;5031269;28;20031;-83
2021/09/01 04:09:03;;;;;;;10.40;3.95;;;16.50;99.90;;;;;;5032524;28;20094;-83
2021/09/01 04:11:29;;;;;;;7.18;3.60;;;16.50;99.90;;;;;;5049534;28;20119;-83
2021/09/01 04:13:55;;;;;;;12.05;4.15;;;16.50;99.90;;;;;;5049063;28;20055;-83
2021/09/01 04:16:21;;;;;;;9.77;3.38;;;16.50;99.90;;;;;;5049748;28;20032;-83
2021/09/01 04:18:47;;;;;;;8.38;3.40;;;16.60;99.90;;;;;;5050797;28;20062;-82
2021/09/01 04:21:13;;;;;;;8.65;3.40;;;16.60;99.90;;;;;;5050607;28;20029;-83
2021/09/01 04:23:38;;;;;;;11.15;3.65;;;16.50;99.90;;;;;;5050724;28;20607;-83
2021/09/01 04:26:04;;;;;;;9.07;3.60;;;16.60;99.90;;;;;;5050987;28;20385;-83
2021/09/01 04:28:30;;;;;;;10.15;3.80;;;16.60;99.90;;;;;;5050380;28;20100;-83
2021/09/01 04:30:56;;;;;;;11.77;3.63;;;16.60;99.90;;;;;;5048283;28;20047;-83
2021/09/01 04:33:22;;;;;;;12.15;3.67;;;16.60;99.90;;;;;;5050404;28;20426;-82
2021/09/01 04:35:47;;;;;;;8.40;3.95;;;16.60;99.90;;;;;;5049458;28;20029;-88
2021/09/01 04:38:13;;;;;;;8.75;3.65;;;16.60;99.90;;;;;;5049302;28;20021;-83
2021/09/01 04:40:39;;;;;;;8.95;3.30;;;16.50;99.90;;;;;;5049245;28;20025;-85
2021/09/01 04:43:06;;;;;;;8.88;3.88;;;16.50;99.90;;;;;;5048931;28;20025;-88
2021/09/01 04:45:32;;;;;;;12.50;4.20;;;16.50;99.90;;;;;;5050788;28;20090;-86
2021/09/01 04:47:57;;;;;;;8.95;3.53;;;16.50;99.90;;;;;;5049212;28;20489;-84
2021/09/01 04:50:23;;;;;;;8.65;3.80;;;16.50;99.90;;;;;;5048215;28;20097;-84
2021/09/01 04:52:49;;;;;;;7.93;3.47;;;16.50;99.90;;;;;;5048756;28;20029;-83
2021/09/01 04:55:17;;;;;;;7.60;3.38;;;16.50;99.90;;;;;;5050056;28;20164;-84
2021/09/01 04:57:43;;;;;;;10.60;3.45;;;16.50;99.90;;;;;;5050032;28;20013;-86
2021/09/01 05:00:09;;;;;;;10.30;3.55;;;16.50;99.90;;;;;;5048803;28;20029;-85
2021/09/01 05:02:35;;;;;;;6.75;3.03;;;16.60;99.90;;;;;;5048386;28;20036;-86
2021/09/01 05:05:00;;;;;;;12.15;4.45;;;16.50;99.90;;;;;;5048353;28;20025;-85
2021/09/01 05:07:26;;;;;;;9.88;3.97;;;16.50;99.90;;;;;;5047659;28;20381;-84
2021/09/01 05:09:52;;;;;;;8.88;3.92;;;16.60;99.90;;;;;;5047740;28;20136;-84
2021/09/01 05:12:17;;;;;;;8.65;3.40;;;16.60;99.90;;;;;;5047706;28;20033;-85
2021/09/01 05:14:43;;;;;;;10.50;3.72;;;16.60;99.90;;;;;;5048560;28;20028;-85
2021/09/01 05:17:09;;;;;;;10.95;3.80;;;16.60;99.90;;;;;;5048466;28;20021;-85
2021/09/01 05:19:34;;;;;;;8.50;3.70;;;16.60;99.90;;;;;;5049767;28;20446;-85
2021/09/01 05:22:08;;;;;;;9.68;4.18;;;16.60;99.90;;;;;;5048434;28;20017;-85
2021/09/01 05:24:40;;;;;;;9.40;3.60;;;16.60;99.90;;;;;;5048099;28;20025;-85
2021/09/01 05:27:08;;;;;;;10.80;4.00;;;16.60;99.90;;;;;;5049525;28;20025;-85
2021/09/01 05:32:47;;;;;;;7.57;2.70;;;16.60;99.90;;;;;;5048663;28;20107;-85
2021/09/01 05:38:24;;;;;;;8.77;3.17;;;16.60;99.90;;;;;;5048768;28;20557;-85
2021/09/01 05:40:51;;;;;;;9.55;3.35;;;16.60;99.90;;;;;;5047866;28;20021;-85
2021/09/01 05:43:19;;;;;;;11.15;3.67;;;16.60;99.90;;;;;;5049302;28;20044;-85
2021/09/01 05:45:47;;;;;;;8.27;3.30;;;16.60;99.90;;;;;;5048510;28;20024;-84
2021/09/01 05:48:13;;;;;;;9.30;3.08;;;16.60;99.90;;;;;;5053629;28;20041;-84
2021/09/01 05:50:42;;;;;;;9.02;3.97;;;16.60;99.90;;;;;;5051449;28;20131;-85
2021/09/01 05:53:09;;;;;;;;;;;16.60;99.90;;;;;;5052567;28;20032;-86
2021/09/01 05:55:38;;;;;;;11.95;3.30;;;16.60;99.90;;;;;;5051538;28;19955;-86
2021/09/01 05:58:18;;;;;;;7.25;3.05;;;16.50;99.90;;;;;;5050848;28;20025;-85
2021/09/01 06:01:25;;;;;;;18.08;4.03;;;16.50;99.90;;;;;;5013472;28;20038;-91
2021/09/01 06:03:51;;;;;;;11.00;3.42;;;16.60;99.90;;;;;;5017964;28;20029;-87
2021/09/01 06:06:21;;;;;;;9.35;3.45;;;16.60;99.90;;;;;;5051871;28;20033;-86
2021/09/01 06:08:47;;;;;;;6.90;3.22;;;16.60;99.90;;;;;;5053549;28;20083;-87
2021/09/01 06:11:16;;;;;;;10.95;3.80;;;16.60;99.90;;;;;;5052013;28;20044;-87
2021/09/01 06:13:41;;;;;;;8.90;4.03;;;16.60;99.90;;;;;;5045833;28;20481;-87
2021/09/01 06:16:07;;;;;;;8.93;3.45;;;16.60;99.90;;;;;;5033196;28;20026;-86
2021/09/01 06:18:33;;;;;;;12.60;3.83;;;16.60;99.90;;;;;;5065632;28;20033;-85
2021/09/01 06:20:59;;;;;;;8.88;3.97;;;16.60;99.90;;;;;;5052387;28;20032;-86
2021/09/01 06:23:24;;;;;;;10.15;3.90;;;16.60;99.90;;;;;;5053013;28;20029;-85
2021/09/01 06:25:50;;;;;;;10.88;5.25;;;16.70;99.90;;;;;;5049743;28;20025;-85
2021/09/01 06:28:16;;;;;;;10.85;4.50;;;16.70;99.90;;;;;;5052336;28;20094;-84
2021/09/01 06:30:41;;;;;;;9.00;3.72;;;16.70;99.90;;;;;;5051079;28;20067;-85
2021/09/01 06:33:07;;;;;;;14.23;5.20;;;16.70;99.90;;;;;;5051039;28;20287;-86
2021/09/01 06:35:33;;;;;;;15.20;5.50;;;16.70;99.90;;;;;;5067848;28;20473;-89
2021/09/01 06:37:59;;;;;;;16.58;6.40;;;16.70;99.90;;;;;;5053478;28;20047;-88
2021/09/01 06:40:26;;;;;;;22.70;8.63;;;16.70;99.90;;;;;;5050231;28;20442;-89
2021/09/01 06:42:52;;;;;;;21.38;9.10;;;16.70;99.90;;;;;;5051352;28;20051;-90
2021/09/01 06:45:17;;;;;;;21.00;8.00;;;16.60;99.90;;;;;;5051735;28;20033;-90
2021/09/01 06:47:46;;;;;;;20.08;7.82;;;16.70;99.90;;;;;;5052020;28;20496;-87
2021/09/01 06:50:19;;;;;;;22.98;10.60;;;16.60;99.90;;;;;;5051779;28;20033;-90
2021/09/01 06:52:46;;;;;;;24.08;10.30;;;16.60;99.90;;;;;;5053566;28;20092;-88
2021/09/01 06:55:14;;;;;;;19.73;8.40;;;16.60;99.90;;;;;;5053077;28;20025;-89
2021/09/01 06:57:40;;;;;;;20.65;8.50;;;16.60;99.90;;;;;;5051193;28;20539;-89
2021/09/01 07:00:09;;;;;;;16.02;8.02;;;16.60;99.90;;;;;;5051624;28;20489;-89
2021/09/01 07:02:35;;;;;;;15.50;7.05;;;16.50;99.90;;;;;;5051618;28;20021;-89
2021/09/01 07:05:00;;;;;;;14.55;6.88;;;16.50;99.90;;;;;;5051662;28;20063;-87
2021/09/01 07:07:26;;;;;;;19.00;7.40;;;16.50;99.90;;;;;;5052826;28;20241;-87
2021/09/01 07:09:52;;;;;;;23.40;8.93;;;16.60;99.90;;;;;;5051355;28;20025;-88
2021/09/01 07:12:17;;;;;;;18.67;8.13;;;16.60;99.90;;;;;;5052199;28;20112;-88
2021/09/01 07:14:43;;;;;;;15.95;7.15;;;16.60;99.90;;;;;;5051864;28;20388;-88
2021/09/01 07:17:09;;;;;;;18.65;6.90;;;16.60;99.90;;;;;;5051025;28;20120;-89
2021/09/01 07:19:35;;;;;;;13.85;6.28;;;16.60;99.90;;;;;;5051290;28;20128;-89
2021/09/01 07:22:01;;;;;;;15.38;7.40;;;16.60;99.90;;;;;;5051898;28;20032;-89
2021/09/01 07:24:26;;;;;;;17.73;8.88;;;16.60;99.90;;;;;;5053085;28;20582;-89
2021/09/01 07:26:52;;;;;;;24.88;11.68;;;16.60;99.90;;;;;;5050680;28;20029;-89
2021/09/01 07:29:18;;;;;;;25.30;8.65;;;16.60;99.90;;;;;;5050524;28;20033;-90
2021/09/01 07:31:43;;;;;;;16.10;6.78;;;16.60;99.90;;;;;;5052248;28;20171;-91
2021/09/01 07:34:09;;;;;;;18.15;7.25;;;16.60;99.90;;;;;;5051957;28;20107;-90
2021/09/01 07:36:35;;;;;;;19.90;7.30;;;16.60;99.90;;;;;;5051076;28;20081;-90
2021/09/01 07:39:00;;;;;;;19.08;7.50;;;16.60;99.90;;;;;;5051685;28;20067;-90
2021/09/01 07:41:26;;;;;;;18.23;7.00;;;16.70;99.90;;;;;;5050946;28;20075;-92
2021/09/01 07:43:52;;;;;;;16.55;7.72;;;16.70;99.90;;;;;;5051509;28;20028;-90
2021/09/01 07:46:18;;;;;;;18.58;8.07;;;16.70;99.90;;;;;;5051285;28;20025;-89
2021/09/01 07:48:43;;;;;;;17.05;7.65;;;16.70;99.90;;;;;;5049013;28;20112;-89
2021/09/01 07:51:09;;;;;;;17.35;7.85;;;16.70;99.90;;;;;;5048904;28;20021;-89
2021/09/01 07:53:35;;;;;;;18.90;7.93;;;16.70;99.90;;;;;;5046066;28;20056;-89
2021/09/01 07:56:00;;;;;;;16.88;7.60;;;16.80;99.90;;;;;;5029044;28;20132;-89
2021/09/01 07:58:26;;;;;;;14.30;6.70;;;16.70;99.90;;;;;;5028778;28;20036;-88
2021/09/01 08:00:52;;;;;;;10.73;5.65;;;16.80;99.90;;;;;;5029037;28;20032;-89
2021/09/01 08:03:18;;;;;;;11.75;6.30;;;16.70;99.90;;;;;;5030965;28;20481;-89
2021/09/01 08:05:45;;;;;;;14.27;6.07;;;16.70;99.90;;;;;;5030374;28;20032;-89
2021/09/01 08:08:11;;;;;;;15.55;5.85;;;16.70;99.90;;;;;;5030016;28;20478;-89
2021/09/01 08:10:37;;;;;;;12.65;5.00;;;16.70;99.90;;;;;;5031093;28;20033;-89
2021/09/01 08:13:03;;;;;;;14.80;4.55;;;16.70;99.90;;;;;;5029846;28;20029;-89
2021/09/01 08:15:29;;;;;;;15.48;4.47;;;16.80;99.90;;;;;;5031245;28;20040;-90
2021/09/01 08:17:54;;;;;;;11.10;4.22;;;16.80;99.90;;;;;;5029864;28;20033;-90
2021/09/01 08:20:20;;;;;;;9.70;3.65;;;16.80;99.90;;;;;;5029583;28;20028;-90
2021/09/01 08:22:45;;;;;;;9.68;4.15;;;16.80;99.90;;;;;;5030535;28;20024;-90
2021/09/01 08:25:12;;;;;;;10.00;3.60;;;16.80;99.90;;;;;;5030178;28;20434;-90
2021/09/01 08:27:38;;;;;;;12.98;4.18;;;16.80;99.90;;;;;;5029396;28;20025;-90
2021/09/01 08:30:06;;;;;;;12.25;4.43;;;16.90;99.90;;;;;;5030354;28;20061;-86
2021/09/01 08:32:31;;;;;;;12.43;4.00;;;16.90;99.90;;;;;;5031460;28;20474;-90
2021/09/01 08:34:57;;;;;;;10.98;3.90;;;16.90;99.90;;;;;;5030353;28;20022;-88
2021/09/01 08:37:26;;;;;;;10.20;4.30;;;16.90;99.90;;;;;;5046908;28;20083;-91
2021/09/01 08:39:51;;;;;;;12.07;4.47;;;16.80;99.90;;;;;;5049947;28;20020;-90
2021/09/01 08:42:19;;;;;;;9.05;4.40;;;16.80;99.90;;;;;;5049922;28;20032;-88
2021/09/01 08:44:44;;;;;;;14.23;4.40;;;16.80;99.90;;;;;;5049811;28;20060;-88
2021/09/01 08:47:12;;;;;;;11.27;4.30;;;16.80;99.90;;;;;;5052560;28;20021;-92
2021/09/01 08:49:37;;;;;;;13.25;4.18;;;16.90;99.90;;;;;;5050189;28;20056;-89
2021/09/01 08:52:03;;;;;;;9.93;3.65;;;16.90;99.90;;;;;;5049498;28;20059;-89
2021/09/01 08:54:29;;;;;;;16.13;5.68;;;16.90;99.90;;;;;;5048922;28;20466;-89
2021/09/01 08:56:55;;;;;;;19.80;6.03;;;16.90;99.90;;;;;;5049516;28;20036;-88
2021/09/01 08:59:20;;;;;;;16.30;5.60;;;16.90;99.90;;;;;;5047772;28;20056;-88
2021/09/01 09:01:55;;;;;;;16.02;5.28;;;16.90;99.90;;;;;;5065773;28;20017;-88
2021/09/01 09:04:26;;;;;;;13.25;4.60;;;16.90;99.90;;;;;;5049298;28;20021;-89
2021/09/01 09:06:54;;;;;;;10.90;4.43;;;16.90;99.90;;;;;;5051287;28;20024;-88
2021/09/01 09:09:25;;;;;;;14.35;4.65;;;16.90;99.90;;;;;;5048429;28;20067;-86
2021/09/01 09:11:52;;;;;;;11.55;4.35;;;16.90;99.90;;;;;;5049484;28;20137;-86
2021/09/01 09:14:22;;;;;;;12.95;4.13;;;16.90;99.90;;;;;;5050410;28;20029;-86
2021/09/01 09:17:09;;;;;;;10.00;4.25;;;16.90;99.90;;;;;;5049224;28;20116;-85
2021/09/01 09:19:54;;;;;;;12.63;4.57;;;16.90;99.90;;;;;;5050338;28;20025;-86
2021/09/01 09:22:35;;;;;;;12.43;4.20;;;16.90;99.90;;;;;;5054703;28;20025;-86
2021/09/01 09:25:21;;;;;;;11.95;4.25;;;17.00;99.90;;;;;;5053601;28;20365;-86
2021/09/01 09:27:58;;;;;;;10.57;3.92;;;17.00;99.90;;;;;;5055033;28;20025;-86
2021/09/01 09:30:25;;;;;;;7.85;3.80;;;17.10;99.90;;;;;;5054765;28;20025;-86
2021/09/01 09:33:18;;;;;;;13.45;4.60;;;17.10;99.90;;;;;;5054573;28;20029;-86
2021/09/01 09:36:00;;;;;;;12.02;3.75;;;17.10;99.90;;;;;;5070994;28;20052;-86
2021/09/01 09:38:45;;;;;;;11.63;4.13;;;17.10;99.90;;;;;;5057159;28;20017;-86
2021/09/01 09:41:22;;;;;;;9.15;3.75;;;17.10;99.90;;;;;;5061172;28;20029;-86
2021/09/01 09:43:53;;;;;;;10.23;3.63;;;17.10;99.90;;;;;;5059422;28;20199;-87
2021/09/01 09:46:19;;;;;;;14.48;4.60;;;17.10;99.90;;;;;;5066086;28;20033;-86
2021/09/01 09:48:47;;;;;;;13.10;3.90;;;17.00;99.90;;;;;;5065906;28;20025;-86
2021/09/01 09:51:15;;;;;;;10.13;3.67;;;17.10;99.90;;;;;;5054686;28;20033;-85
2021/09/01 09:53:47;;;;;;;9.55;3.78;;;17.00;99.90;;;;;;5053229;28;20549;-86
2021/09/01 09:56:18;;;;;;;12.80;4.38;;;17.10;99.90;;;;;;5052904;28;20047;-86
2021/09/01 09:58:47;;;;;;;11.45;3.53;;;17.10;99.90;;;;;;5052868;28;20093;-90
2021/09/01 10:01:15;;;;;;;9.55;3.50;;;17.00;99.90;;;;;;5052894;28;20139;-87
2021/09/01 10:03:41;;;;;;;10.23;3.60;;;17.10;99.90;;;;;;5055709;28;20037;-88
2021/09/01 10:06:09;;;;;;;9.88;4.60;;;17.10;99.90;;;;;;5054777;28;20055;-88
2021/09/01 10:08:36;;;;;;;13.55;5.82;;;17.10;99.90;;;;;;5057712;28;20021;-87
2021/09/01 10:11:09;;;;;;;10.90;4.32;;;17.10;99.90;;;;;;5064810;28;20032;-87
2021/09/01 10:13:36;;;;;;;10.60;4.22;;;17.10;99.90;;;;;;5065495;28;20025;-87
2021/09/01 10:16:27;;;;;;;10.68;3.42;;;17.10;99.90;;;;;;5067742;28;20067;-88
2021/09/01 10:19:10;;;;;;;8.38;3.47;;;17.10;99.90;;;;;;5053014;28;20158;-87
2021/09/01 10:21:43;;;;;;;10.43;3.28;;;17.10;99.80;;;;;;5063663;28;20025;-87
2021/09/01 10:24:20;;;;;;;6.82;3.17;;;17.20;99.90;;;;;;5059046;28;20055;-87
2021/09/01 10:27:22;;;;;;;8.98;3.67;;;17.20;99.90;;;;;;5053461;28;20049;-87
2021/09/01 10:29:57;;;;;;;10.00;3.67;;;17.20;99.90;;;;;;5058329;28;20489;-87
2021/09/01 10:32:42;;;;;;;10.88;3.85;;;17.20;99.40;;;;;;5059817;28;20052;-87
2021/09/01 10:35:16;;;;;;;8.60;4.15;;;17.30;99.70;;;;;;5052587;28;20051;-87
2021/09/01 10:37:53;;;;;;;11.27;4.28;;;17.30;99.90;;;;;;5051719;28;20385;-87
2021/09/01 10:40:22;;;;;;;11.27;4.80;;;17.30;99.70;;;;;;5050133;28;20025;-87
2021/09/01 10:42:55;;;;;;;11.05;4.70;;;17.30;99.70;;;;;;5050689;28;20017;-87
2021/09/01 10:45:22;;;;;;;8.88;4.07;;;17.30;99.60;;;;;;5050987;28;20036;-87
2021/09/01 10:47:54;;;;;;;12.75;4.45;;;17.40;99.70;;;;;;5052747;28;20021;-87
2021/09/01 10:50:33;;;;;;;13.10;4.40;;;17.40;99.60;;;;;;5050361;28;20021;-88
2021/09/01 10:53:01;;;;;;;10.82;4.68;;;17.40;99.40;;;;;;5052754;28;20036;-87
2021/09/01 10:55:27;;;;;;;15.32;4.65;;;17.40;99.50;;;;;;5050534;28;20486;-87
2021/09/01 10:58:19;;;;;;;9.50;4.97;;;17.40;99.60;;;;;;5051773;28;20029;-88
2021/09/01 11:00:51;;;;;;;9.35;4.38;;;17.40;99.90;;;;;;5050547;28;20083;-87
2021/09/01 11:03:37;;;;;;;9.68;4.40;;;17.40;99.50;;;;;;5052357;28;20033;-87
2021/09/01 11:06:14;;;;;;;8.85;4.28;;;17.30;99.50;;;;;;5052245;28;20033;-87
2021/09/01 11:09:12;;;;;;;9.52;4.25;;;17.30;99.40;;;;;;5050716;28;20389;-87
2021/09/01 11:11:46;;;;;;;10.40;4.38;;;17.30;99.60;;;;;;5051049;28;20413;-87
2021/09/01 11:14:29;;;;;;;9.50;4.13;;;17.40;99.50;;;;;;5049997;28;20033;-87
2021/09/01 11:16:55;;;;;;;9.20;4.43;;;17.40;99.50;;;;;;5051037;28;20028;-87
2021/09/01 11:19:21;;;;;;;12.35;4.57;;;17.40;99.40;;;;;;5049860;28;20029;-87
2021/09/01 11:21:48;;;;;;;10.85;4.68;;;17.40;99.40;;;;;;5050560;28;20021;-88
2021/09/01 11:24:17;;;;;;;15.13;8.18;;;17.40;99.20;;;;;;5068124;28;20058;-89
2021/09/01 11:26:44;;;;;;;16.33;7.22;;;17.40;99.40;;;;;;5051109;28;20078;-88
2021/09/01 11:29:11;;;;;;;10.98;4.97;;;17.40;99.70;;;;;;5052124;28;20347;-89
2021/09/01 11:31:45;;;;;;;12.55;4.75;;;17.40;99.30;;;;;;5050967;28;20556;-87
2021/09/01 11:34:12;;;;;;;11.93;4.97;;;17.50;99.80;;;;;;5050865;28;20025;-87
2021/09/01 11:36:39;;;;;;;13.27;4.47;;;17.50;99.70;;;;;;5052296;28;20101;-89
2021/09/01 11:39:06;;;;;;;7.10;4.53;;;17.50;99.50;;;;;;5050743;28;20037;-89
2021/09/01 11:41:32;;;;;;;9.45;4.30;;;17.50;99.30;;;;;;5053848;28;20021;-88
2021/09/01 11:44:03;;;;;;;11.93;4.85;;;17.50;99.00;;;;;;5050011;28;20500;-88
2021/09/01 11:46:34;;;;;;;10.82;4.53;;;17.50;99.10;;;;;;5052238;28;20082;-87
2021/09/01 11:49:05;;;;;;;12.68;5.40;;;17.50;98.80;;;;;;5051035;28;20025;-89
2021/09/01 11:51:31;;;;;;;10.48;4.75;;;17.50;98.90;;;;;;5051135;28;20025;-89
2021/09/01 11:53:58;;;;;;;15.93;6.90;;;17.50;99.10;;;;;;5050002;28;20481;-89
2021/09/01 11:56:26;;;;;;;13.05;5.47;;;17.60;98.90;;;;;;5050452;28;20027;-89
2021/09/01 11:58:56;;;;;;;9.70;4.90;;;17.60;98.60;;;;;;5048765;28;20025;-88
2021/09/01 12:01:22;;;;;;;12.13;5.05;;;17.60;98.60;;;;;;5050835;28;20492;-88
2021/09/01 12:03:48;;;;;;;11.25;5.15;;;17.60;98.80;;;;;;5049747;28;20020;-89
2021/09/01 12:06:14;;;;;;;10.80;5.32;;;17.60;98.70;;;;;;5049595;28;20021;-88
2021/09/01 12:08:44;;;;;;;12.35;5.75;;;17.60;98.50;;;;;;5049641;28;20486;-87
2021/09/01 12:11:11;;;;;;;14.77;5.60;;;17.60;98.80;;;;;;5048878;28;20044;-89
2021/09/01 12:13:48;;;;;;;12.23;5.05;;;17.60;98.60;;;;;;5043328;28;20021;-89
2021/09/01 12:16:14;;;;;;;12.70;5.50;;;17.70;98.70;;;;;;5030089;28;20037;-89
2021/09/01 12:18:57;;;;;;;12.25;5.28;;;17.70;98.70;;;;;;5052790;28;20025;-89
2021/09/01 12:21:40;;;;;;;11.20;5.00;;;17.70;98.40;;;;;;5049456;28;20068;-89
2021/09/01 12:24:25;;;;;;;11.65;5.50;;;17.70;98.60;;;;;;5048812;28;20029;-88
2021/09/01 12:26:57;;;;;;;11.93;4.75;;;17.70;98.40;;;;;;5050802;28;20028;-88
2021/09/01 12:29:38;;;;;;;12.00;5.07;;;17.70;97.90;;;;;;5047685;28;20060;-89
2021/09/01 12:32:06;;;;;;;9.77;5.05;;;17.70;98.10;;;;;;5049289;28;20509;-87
2021/09/01 12:34:43;;;;;;;10.57;5.57;;;17.80;98.10;;;;;;5049083;28;20112;-89
2021/09/01 12:37:20;;;;;;;10.75;5.57;;;17.80;98.20;;;;;;5048918;28;20039;-89
2021/09/01 12:39:52;;;;;;;12.05;6.10;;;17.80;98.00;;;;;;5048175;28;20469;-89
2021/09/01 12:42:21;;;;;;;11.40;5.97;;;17.80;98.00;;;;;;5047996;28;20099;-88
2021/09/01 12:44:48;;;;;;;14.77;7.25;;;17.80;97.70;;;;;;5048654;28;20494;-88
2021/09/01 12:47:14;;;;;;;17.05;7.93;;;17.80;97.70;;;;;;5048355;28;20393;-89
2021/09/01 12:49:47;;;;;;;12.50;7.30;;;17.80;97.70;;;;;;5049732;28;20032;-89
2021/09/01 12:52:16;;;;;;;15.07;6.68;;;17.80;97.60;;;;;;5048657;28;20036;-89
2021/09/01 12:54:42;;;;;;;12.30;5.75;;;17.80;97.80;;;;;;5047756;28;20025;-88